createdAt,value
2018-12-11T00:10:05.803Z,69.80
2018-12-11T00:14:09.847Z,69.54
2018-12-11T00:18:13.899Z,69.80
2018-12-11T00:22:18.002Z,68.97
2018-12-11T00:26:21.992Z,69.82
2018-12-11T00:30:26.084Z,69.45
2018-12-11T00:34:30.238Z,69.79
2018-12-11T00:38:34.291Z,69.16
2018-12-11T00:42:38.458Z,69.18
2018-12-11T00:46:42.519Z,69.22
2018-12-11T00:50:46.507Z,69.54
2018-12-11T00:54:50.584Z,69.18
2018-12-11T00:58:54.614Z,69.15
2018-12-11T01:02:59.603Z,69.60
2018-12-11T01:07:03.837Z,69.28
2018-12-11T01:11:08.984Z,69.24
2018-12-11T01:15:13.051Z,68.58
2018-12-11T01:19:17.022Z,68.86
2018-12-11T01:23:21.089Z,68.54
2018-12-11T01:27:25.131Z,68.49
2018-12-11T01:31:29.185Z,69.02
2018-12-11T01:35:33.210Z,68.52
2018-12-11T01:39:37.302Z,68.18
2018-12-11T01:43:41.327Z,68.66
2018-12-11T01:47:45.291Z,69.63
2018-12-11T01:51:50.477Z,69.47
2018-12-11T01:55:54.543Z,70.12
2018-12-11T01:59:58.596Z,69.58
2018-12-11T02:04:02.626Z,70.23
2018-12-11T02:08:06.604Z,70.87
2018-12-11T02:12:10.725Z,70.36
2018-12-11T02:16:14.819Z,70.70
2018-12-11T02:20:18.850Z,70.44
2018-12-11T02:24:22.821Z,70.64
2018-12-11T02:28:26.804Z,70.91
2018-12-11T02:32:30.759Z,70.95
2018-12-11T02:36:34.881Z,70.68
2018-12-11T02:40:38.927Z,70.42
2018-12-11T02:44:42.996Z,70.05
2018-12-11T02:48:47.091Z,70.22
2018-12-11T02:52:51.160Z,69.95
2018-12-11T02:56:55.257Z,70.11
2018-12-11T03:00:59.503Z,69.97
2018-12-11T03:05:04.014Z,70.01
2018-12-11T03:09:08.357Z,69.92
2018-12-11T03:13:12.336Z,69.95
2018-12-11T03:17:16.522Z,70.08
2018-12-11T03:21:20.483Z,69.83
2018-12-11T03:25:25.616Z,70.39
2018-12-11T03:29:29.671Z,70.14
2018-12-11T03:33:33.683Z,70.01
2018-12-11T03:37:37.751Z,70.75
2018-12-11T03:41:41.755Z,70.75
2018-12-11T03:45:45.762Z,70.68
2018-12-11T03:49:49.819Z,70.29
2018-12-11T03:53:53.726Z,70.35
2018-12-11T03:57:57.741Z,70.15
2018-12-11T04:02:01.870Z,70.33
2018-12-11T04:06:05.961Z,70.17
2018-12-11T04:10:10.156Z,70.24
2018-12-11T04:14:14.185Z,70.31
2018-12-11T04:18:18.124Z,70.24
2018-12-11T04:22:22.170Z,69.94
2018-12-11T04:26:26.180Z,70.29
2018-12-11T04:30:30.200Z,69.92
2018-12-11T04:34:34.195Z,70.11
2018-12-11T04:38:38.263Z,70.40
2018-12-11T04:42:42.243Z,71.02
2018-12-11T04:46:46.307Z,70.84
2018-12-11T04:50:50.476Z,70.39
2018-12-11T04:54:54.530Z,70.51
2018-12-11T04:58:58.618Z,70.78
2018-12-11T05:03:02.760Z,70.60
2018-12-11T05:07:06.914Z,71.34
2018-12-11T05:11:10.947Z,71.21
2018-12-11T05:15:14.943Z,71.09
2018-12-11T05:19:18.973Z,71.21
2018-12-11T05:23:23.033Z,70.93
2018-12-11T05:27:27.091Z,70.99
2018-12-11T05:31:31.193Z,70.68
2018-12-11T05:35:35.190Z,70.77
2018-12-11T05:39:39.209Z,70.91
2018-12-11T05:43:43.263Z,71.27
2018-12-11T05:47:47.346Z,71.61
2018-12-11T05:51:51.373Z,71.42
2018-12-11T05:55:55.437Z,71.95
2018-12-11T06:00:00.138Z,71.48
2018-12-11T06:04:04.214Z,71.02
2018-12-11T06:08:08.158Z,70.92
2018-12-11T06:12:12.360Z,71.80
2018-12-11T06:16:16.411Z,70.08
2018-12-11T06:20:20.434Z,70.70
2018-12-11T06:24:24.467Z,70.35
2018-12-11T06:28:28.531Z,70.61
2018-12-11T06:32:32.534Z,70.29
2018-12-11T06:36:36.538Z,70.64
2018-12-11T06:40:40.537Z,70.00
2018-12-11T06:44:44.611Z,70.68
2018-12-11T06:48:48.582Z,69.93
2018-12-11T06:52:52.646Z,70.27
2018-12-11T06:56:56.635Z,70.24
2018-12-11T07:01:00.663Z,69.84
2018-12-11T07:05:05.628Z,70.33
2018-12-11T07:09:09.566Z,70.05
2018-12-11T07:13:13.710Z,69.99
2018-12-11T07:17:17.672Z,70.14
2018-12-11T07:21:21.753Z,70.29
2018-12-11T07:25:25.829Z,70.88
2018-12-11T07:29:29.882Z,70.80
2018-12-11T07:33:33.855Z,70.84
2018-12-11T07:37:37.871Z,70.18
2018-12-11T07:41:41.890Z,70.32
2018-12-11T07:45:45.876Z,70.63
2018-12-11T07:49:49.811Z,71.12
2018-12-11T07:53:54.795Z,70.93
2018-12-11T07:57:58.843Z,70.78
2018-12-11T08:02:02.878Z,70.86
2018-12-11T08:06:06.887Z,70.52
2018-12-11T08:10:10.960Z,70.66
2018-12-11T08:14:15.051Z,70.47
2018-12-11T08:18:18.968Z,70.93
2018-12-11T08:22:22.953Z,70.24
2018-12-11T08:26:26.994Z,70.13
2018-12-11T08:30:32.933Z,69.55
2018-12-11T08:34:37.757Z,69.75
2018-12-11T08:38:41.858Z,70.12
2018-12-11T08:42:45.966Z,69.57
2018-12-11T08:46:49.984Z,68.75
2018-12-11T08:50:53.974Z,68.91
2018-12-11T08:54:58.056Z,69.34
2018-12-11T08:59:06.489Z,67.84
2018-12-11T09:03:08.167Z,65.69
2018-12-11T09:07:12.249Z,64.91
2018-12-11T09:11:16.196Z,64.51
2018-12-11T09:15:20.223Z,63.92
2018-12-11T09:19:24.336Z,63.79
2018-12-11T09:23:29.295Z,64.37
2018-12-11T09:27:33.294Z,66.09
2018-12-11T09:31:37.292Z,65.86
2018-12-11T09:35:41.416Z,64.60
2018-12-11T09:39:45.872Z,64.45
2018-12-11T09:43:49.975Z,62.73
2018-12-11T09:47:54.078Z,63.02
2018-12-11T09:51:59.139Z,64.07
2018-12-11T09:56:03.514Z,62.24
2018-12-11T10:00:08.889Z,60.21
2018-12-11T10:04:12.890Z,61.22
2018-12-11T10:08:17.074Z,61.16
2018-12-11T10:12:20.990Z,60.11
2018-12-11T10:16:25.146Z,58.33
2018-12-11T10:20:29.316Z,61.52
2018-12-11T10:24:33.366Z,62.48
2018-12-11T10:28:37.427Z,61.70
2018-12-11T10:32:43.427Z,62.38
2018-12-11T10:36:47.512Z,62.74
2018-12-11T10:40:51.543Z,61.67
2018-12-11T10:44:55.542Z,60.51
2018-12-11T10:48:59.599Z,60.99
2018-12-11T10:53:06.247Z,61.25
2018-12-11T10:57:10.304Z,60.27
2018-12-11T11:01:19.179Z,61.15
2018-12-11T11:05:23.254Z,60.19
2018-12-11T11:09:27.215Z,60.50
2018-12-11T11:13:31.174Z,60.97
2018-12-11T11:17:35.147Z,60.00
2018-12-11T11:21:39.187Z,59.21
2018-12-11T11:25:43.222Z,60.02
2018-12-11T11:29:47.254Z,58.85
2018-12-11T11:33:56.572Z,59.99
2018-12-11T11:37:57.623Z,59.67
2018-12-11T11:42:01.646Z,60.35
2018-12-11T11:46:05.719Z,59.12
2018-12-11T11:50:14.174Z,59.07
2018-12-11T11:54:18.158Z,59.09
2018-12-11T11:58:22.171Z,59.46
2018-12-11T12:02:26.111Z,60.06
2018-12-11T12:06:30.103Z,59.90
2018-12-11T12:10:34.344Z,58.77
2018-12-11T12:14:38.398Z,58.77
2018-12-11T12:18:42.331Z,59.26
2018-12-11T12:22:46.271Z,59.29
2018-12-11T12:26:50.243Z,59.25
2018-12-11T12:30:56.482Z,58.36
2018-12-11T12:35:00.508Z,58.69
2018-12-11T12:39:07.380Z,59.02
2018-12-11T12:43:12.478Z,58.42
2018-12-11T12:47:16.419Z,58.86
2018-12-11T12:51:20.420Z,58.96
2018-12-11T12:55:24.427Z,58.87
2018-12-11T12:59:28.612Z,59.04
2018-12-11T13:03:32.860Z,58.84
2018-12-11T13:07:36.914Z,59.59
2018-12-11T13:11:40.909Z,59.48
2018-12-11T13:15:44.939Z,59.04
2018-12-11T13:19:49.006Z,58.63
2018-12-11T13:23:53.003Z,57.07
2018-12-11T13:27:57.015Z,58.86
2018-12-11T13:32:01.035Z,58.23
2018-12-11T13:36:06.391Z,58.67
2018-12-11T13:40:10.478Z,59.62
2018-12-11T13:44:14.722Z,59.33
2018-12-11T13:48:23.377Z,60.08
2018-12-11T13:52:24.833Z,60.16
2018-12-11T13:56:28.910Z,61.10
2018-12-11T14:00:32.984Z,60.49
2018-12-11T14:04:36.965Z,60.35
2018-12-11T14:08:40.969Z,61.16
2018-12-11T14:12:44.967Z,61.27
2018-12-11T14:16:48.922Z,61.54
2018-12-11T14:20:52.924Z,61.62
2018-12-11T14:24:56.930Z,61.09
2018-12-11T14:29:00.975Z,60.77
2018-12-11T14:33:06.329Z,61.25
2018-12-11T14:37:10.807Z,60.69
2018-12-11T14:41:14.935Z,61.35
2018-12-11T14:45:18.994Z,61.19
2018-12-11T14:49:23.087Z,61.47
2018-12-11T14:53:27.130Z,61.53
2018-12-11T14:57:31.498Z,62.23
2018-12-11T15:01:35.613Z,63.24
2018-12-11T15:05:39.856Z,62.43
2018-12-11T15:09:48.393Z,63.31
2018-12-11T15:13:52.599Z,63.14
2018-12-11T15:17:56.630Z,62.42
2018-12-11T15:22:00.737Z,62.79
2018-12-11T15:26:05.535Z,62.10
2018-12-11T15:30:09.994Z,61.73
2018-12-11T15:34:14.036Z,62.24
2018-12-11T15:38:18.024Z,63.30
2018-12-11T15:42:22.067Z,63.41
2018-12-11T15:46:26.477Z,63.62
2018-12-11T15:50:30.519Z,62.86
2018-12-11T15:54:34.480Z,62.64
2018-12-11T15:58:38.588Z,63.19
2018-12-11T16:02:42.738Z,63.55
2018-12-11T16:06:46.837Z,64.53
2018-12-11T16:10:50.819Z,64.80
2018-12-11T16:14:55.024Z,64.69
2018-12-11T16:18:59.079Z,66.44
2018-12-11T16:23:03.042Z,66.01
2018-12-11T16:27:07.302Z,65.67
2018-12-11T16:31:11.423Z,66.14
2018-12-11T16:35:15.498Z,66.51
2018-12-11T16:39:20.574Z,66.47
2018-12-11T16:43:24.678Z,66.08
2018-12-11T16:47:28.904Z,65.66
2018-12-11T16:51:33.103Z,65.35
2018-12-11T16:55:37.155Z,65.94
2018-12-11T16:59:41.283Z,67.28
2018-12-11T17:03:45.464Z,67.10
2018-12-11T17:07:49.508Z,66.49
2018-12-11T17:11:53.578Z,66.23
2018-12-11T17:15:58.591Z,65.79
2018-12-11T17:20:02.920Z,66.20
2018-12-11T17:24:07.687Z,65.95
2018-12-11T17:28:11.682Z,66.36
2018-12-11T17:32:30.960Z,65.98
2018-12-11T17:36:34.958Z,66.36
2018-12-11T17:40:39.873Z,66.62
2018-12-11T17:44:44.019Z,66.69
2018-12-11T17:48:48.137Z,67.36
2018-12-11T17:52:53.788Z,67.01
2018-12-11T17:56:58.187Z,67.67
2018-12-11T18:01:02.453Z,67.63
2018-12-11T18:05:08.467Z,67.62
2018-12-11T18:09:12.735Z,68.30
2018-12-11T18:13:17.540Z,68.31
2018-12-11T18:17:21.531Z,68.26
2018-12-11T18:21:25.628Z,68.36
2018-12-11T18:25:29.651Z,67.99
2018-12-11T18:29:33.788Z,68.93
2018-12-11T18:33:37.943Z,68.28
2018-12-11T18:37:42.164Z,69.07
2018-12-11T18:41:46.631Z,68.81
2018-12-11T18:45:50.817Z,70.01
2018-12-11T18:49:56.046Z,69.63
2018-12-11T18:54:00.274Z,68.68
2018-12-11T18:58:04.425Z,69.38
2018-12-11T19:02:08.823Z,68.88
2018-12-11T19:06:12.975Z,68.78
2018-12-11T19:10:17.212Z,68.99
2018-12-11T19:14:21.465Z,68.71
2018-12-11T19:18:25.567Z,68.57
2018-12-11T19:22:29.651Z,69.00
2018-12-11T19:26:33.664Z,69.61
2018-12-11T19:30:37.747Z,69.56
2018-12-11T19:34:43.791Z,69.93
2018-12-11T19:38:47.842Z,69.77
2018-12-11T19:42:51.858Z,69.75
2018-12-11T19:46:55.904Z,69.61
2018-12-11T19:50:59.918Z,69.97
2018-12-11T19:55:04.218Z,69.93
2018-12-11T19:59:08.328Z,69.54
2018-12-11T20:03:12.587Z,70.27
2018-12-11T20:07:16.630Z,70.16
2018-12-11T20:11:21.110Z,70.29
2018-12-11T20:15:25.445Z,70.26
2018-12-11T20:19:29.591Z,70.04
2018-12-11T20:23:33.644Z,69.93
2018-12-11T20:27:37.618Z,70.71
2018-12-11T20:31:41.726Z,70.42
2018-12-11T20:35:45.783Z,70.27
2018-12-11T20:39:49.873Z,70.78
2018-12-11T20:43:54.018Z,70.31
2018-12-11T20:47:58.195Z,70.51
2018-12-11T20:52:02.210Z,71.18
2018-12-11T20:56:10.856Z,71.12
2018-12-11T21:00:15.592Z,71.42
2018-12-11T21:04:20.274Z,71.72
2018-12-11T21:08:26.639Z,71.42
2018-12-11T21:12:30.587Z,71.31
2018-12-11T21:16:34.602Z,72.05
2018-12-11T21:20:38.646Z,72.02
2018-12-11T21:24:42.923Z,71.36
2018-12-11T21:28:47.092Z,70.83
2018-12-11T21:32:51.143Z,71.08
2018-12-11T21:36:55.120Z,70.73
2018-12-11T21:40:59.146Z,71.26
2018-12-11T21:45:03.518Z,71.49
2018-12-11T21:49:07.603Z,70.75
2018-12-11T21:53:11.627Z,71.08
2018-12-11T21:57:15.700Z,71.00
2018-12-11T22:01:19.783Z,71.25
2018-12-11T22:05:27.711Z,71.50
2018-12-11T22:09:31.692Z,72.03
2018-12-11T22:13:35.692Z,72.11
2018-12-11T22:17:39.727Z,72.27
2018-12-11T22:21:44.048Z,72.67
2018-12-11T22:25:48.177Z,73.01
2018-12-11T22:29:52.238Z,72.62
2018-12-11T22:33:56.212Z,73.09
2018-12-11T22:38:00.278Z,73.46
2018-12-11T22:42:04.356Z,73.81
2018-12-11T22:46:08.523Z,74.00
2018-12-11T22:50:12.659Z,74.22
2018-12-11T22:54:16.854Z,74.17
2018-12-11T22:58:20.914Z,74.66
2018-12-11T23:02:25.120Z,74.39
2018-12-11T23:06:30.139Z,75.07
2018-12-11T23:10:34.203Z,74.97
2018-12-11T23:14:38.200Z,74.98
2018-12-11T23:18:42.208Z,74.68
2018-12-11T23:22:46.383Z,74.68
2018-12-11T23:26:50.326Z,74.84
2018-12-11T23:30:54.332Z,75.16
2018-12-11T23:34:58.687Z,75.51
2018-12-11T23:39:02.791Z,75.01
2018-12-11T23:43:06.874Z,75.37
2018-12-11T23:47:10.874Z,75.06
2018-12-11T23:51:15.109Z,75.13
2018-12-11T23:55:19.882Z,75.01
2018-12-11T23:59:29.098Z,74.84
